Time;durP1;ratioP1;P1;durP2;ratioP2;P2;SDS_P1;SDS_P2;PMS_P1;PMS_P2;Temp;Humidity;BMP_temperature;BMP_pressure;BME280_temperature;BME280_humidity;BME280_pressure;Samples;Min_cycle;Max_cycle;Signal;HPM_P1;HPM_P2
2022/12/20 00:01:20;;;;;;;5.55;3.50;;;9.30;99.90;;;;;;4856942;29;20053;-71
2022/12/20 00:03:52;;;;;;;4.38;3.22;;;9.40;99.90;;;;;;4857379;29;20089;-70
2022/12/20 00:06:18;;;;;;;4.82;2.92;;;9.40;99.90;;;;;;4841684;29;20060;-71
2022/12/20 00:08:44;;;;;;;3.25;2.90;;;9.40;99.90;;;;;;4857995;29;20061;-70
2022/12/20 00:11:10;;;;;;;4.72;3.05;;;9.40;99.90;;;;;;4857405;29;20060;-71
2022/12/20 00:13:36;;;;;;;4.00;3.00;;;9.30;99.90;;;;;;4856928;29;20510;-71
2022/12/20 00:16:12;;;;;;;3.65;2.80;;;9.30;99.90;;;;;;4857409;29;20049;-70
2022/12/20 00:18:39;;;;;;;4.38;2.92;;;9.20;99.90;;;;;;4841855;29;20106;-70
2022/12/20 00:21:07;;;;;;;4.05;3.00;;;9.20;99.90;;;;;;4857357;29;20057;-70
2022/12/20 00:23:35;;;;;;;3.10;2.70;;;9.10;99.90;;;;;;4856833;29;20416;-70
2022/12/20 00:26:05;;;;;;;3.38;2.90;;;9.10;99.90;;;;;;4856953;29;20046;-71
2022/12/20 00:28:31;;;;;;;3.08;2.55;;;9.10;99.90;;;;;;4856905;29;20050;-71
2022/12/20 00:30:57;;;;;;;4.63;3.30;;;9.10;99.90;;;;;;4856914;29;20201;-70
2022/12/20 00:33:24;;;;;;;4.43;3.10;;;9.10;99.90;;;;;;4856743;29;20561;-70
2022/12/20 00:35:50;;;;;;;7.60;3.10;;;9.10;99.90;;;;;;4841447;29;20092;-71
2022/12/20 00:38:16;;;;;;;4.55;3.22;;;9.10;99.90;;;;;;4856712;29;20053;-71
2022/12/20 00:40:42;;;;;;;3.75;2.90;;;9.10;99.90;;;;;;4857029;29;20048;-71
2022/12/20 00:43:08;;;;;;;3.55;2.85;;;9.10;99.90;;;;;;4857259;29;20049;-72
2022/12/20 00:45:33;;;;;;;5.88;3.20;;;9.10;99.90;;;;;;4857338;29;20061;-71
2022/12/20 00:47:59;;;;;;;4.20;2.83;;;9.00;99.90;;;;;;4857882;29;20055;-70
2022/12/20 00:50:24;;;;;;;4.57;2.75;;;9.00;99.90;;;;;;4858388;29;20413;-70
2022/12/20 00:52:50;;;;;;;3.33;2.42;;;9.00;99.90;;;;;;4841304;29;20070;-70
2022/12/20 00:55:16;;;;;;;4.00;3.28;;;8.90;99.90;;;;;;4858835;29;20048;-69
2022/12/20 00:57:41;;;;;;;3.10;2.78;;;8.90;99.90;;;;;;4857107;29;20533;-70
2022/12/20 01:00:08;;;;;;;5.85;3.10;;;8.80;99.90;;;;;;4858457;29;20128;-70
2022/12/20 01:02:33;;;;;;;;;;;8.80;99.90;;;;;;4859819;29;20045;-70
2022/12/20 01:04:59;;;;;;;3.75;2.90;;;8.80;99.90;;;;;;4860207;29;19920;-70
2022/12/20 01:07:25;;;;;;;4.95;3.10;;;8.90;99.90;;;;;;4845146;29;20049;-70
2022/12/20 01:09:50;;;;;;;5.18;3.15;;;8.80;99.90;;;;;;4859898;29;20128;-70
2022/12/20 01:12:16;;;;;;;4.43;3.10;;;8.90;99.90;;;;;;4861671;29;20489;-70
2022/12/20 01:14:42;;;;;;;5.55;3.00;;;8.90;99.90;;;;;;4860017;29;20049;-70
2022/12/20 01:17:08;;;;;;;5.75;3.03;;;8.90;99.90;;;;;;4861390;29;20049;-71
2022/12/20 01:19:34;;;;;;;3.47;2.70;;;8.90;99.90;;;;;;4844126;29;20123;-71
2022/12/20 01:21:59;;;;;;;5.38;3.33;;;9.00;99.90;;;;;;4859818;29;20060;-70
2022/12/20 01:24:25;;;;;;;3.88;3.10;;;9.00;99.90;;;;;;4861087;29;20110;-70
2022/12/20 01:26:51;;;;;;;4.13;3.17;;;9.00;99.90;;;;;;4860042;29;20100;-70
2022/12/20 01:29:16;;;;;;;4.47;2.90;;;9.10;99.90;;;;;;4859706;29;20045;-71
2022/12/20 01:31:43;;;;;;;4.45;2.97;;;9.00;99.90;;;;;;4859623;29;20132;-70
2022/12/20 01:34:08;;;;;;;5.47;3.03;;;9.00;99.90;;;;;;4861361;29;20528;-74
2022/12/20 01:36:37;;;;;;;4.60;2.78;;;9.10;99.90;;;;;;4861485;29;20128;-75
2022/12/20 01:39:12;;;;;;;5.50;3.10;;;9.10;99.90;;;;;;4861321;29;20053;-75
2022/12/20 01:41:39;;;;;;;3.20;2.50;;;9.00;99.90;;;;;;4861376;29;20076;-75
2022/12/20 01:44:24;;;;;;;3.30;2.42;;;9.00;99.90;;;;;;4846801;29;20056;-75
2022/12/20 01:46:50;;;;;;;3.25;2.42;;;9.00;99.90;;;;;;4861765;29;20057;-75
2022/12/20 01:49:43;;;;;;;3.45;2.60;;;9.00;99.90;;;;;;4861351;29;20625;-75
2022/12/20 01:52:14;;;;;;;4.15;2.88;;;9.00;99.90;;;;;;4861821;29;20053;-75
2022/12/20 01:54:45;;;;;;;3.92;2.63;;;9.00;99.90;;;;;;4860715;29;20049;-75
2022/12/20 01:57:19;;;;;;;2.97;2.55;;;8.90;99.90;;;;;;4845871;29;20049;-75
2022/12/20 01:59:49;;;;;;;3.60;3.00;;;8.90;99.90;;;;;;4861567;29;20049;-75
2022/12/20 02:02:15;;;;;;;3.47;2.53;;;8.90;99.90;;;;;;4860565;29;20049;-75
2022/12/20 02:04:40;;;;;;;;;;;8.90;99.90;;;;;;4845222;29;20045;-75
2022/12/20 02:07:07;;;;;;;6.00;2.80;;;8.90;99.90;;;;;;4844453;29;20304;-74
2022/12/20 02:09:36;;;;;;;4.47;2.80;;;8.80;99.90;;;;;;4860904;29;20089;-75
2022/12/20 02:12:14;;;;;;;3.50;2.80;;;8.90;99.90;;;;;;4844761;29;20037;-75
2022/12/20 02:14:40;;;;;;;5.18;2.50;;;8.80;99.90;;;;;;4858405;29;20466;-71
2022/12/20 02:17:30;;;;;;;3.28;2.80;;;8.80;99.90;;;;;;4843826;29;20061;-71
2022/12/20 02:20:33;;;;;;;5.25;3.00;;;8.80;99.90;;;;;;4855807;29;20486;-70
2022/12/20 02:23:02;;;;;;;3.97;2.90;;;8.90;99.90;;;;;;4840643;29;20065;-70
2022/12/20 02:25:33;;;;;;;3.50;2.60;;;8.90;99.90;;;;;;4855010;29;20144;-71
2022/12/20 02:28:36;;;;;;;4.07;2.42;;;8.80;99.90;;;;;;4856952;29;20442;-71
2022/12/20 02:31:06;;;;;;;3.85;2.55;;;8.80;99.90;;;;;;4829407;29;20062;-71
2022/12/20 02:33:32;;;;;;;3.38;2.58;;;8.80;99.90;;;;;;4858300;29;20462;-71
2022/12/20 02:35:58;;;;;;;4.18;2.50;;;8.80;99.90;;;;;;4856940;29;20049;-71
2022/12/20 02:38:30;;;;;;;4.88;2.65;;;8.90;99.90;;;;;;4858250;29;20395;-71
2022/12/20 02:41:19;;;;;;;3.28;2.30;;;8.80;99.90;;;;;;4855948;29;20053;-71
2022/12/20 02:46:35;;;;;;;4.15;2.53;;;8.80;99.90;;;;;;4857162;29;20061;-71
2022/12/20 02:49:06;;;;;;;4.15;2.72;;;8.90;99.90;;;;;;4858097;29;20062;-71
2022/12/20 02:51:33;;;;;;;3.70;3.00;;;8.90;99.90;;;;;;4857873;29;20091;-71
2022/12/20 02:53:59;;;;;;;3.25;2.25;;;8.90;99.90;;;;;;4857272;29;20056;-70
2022/12/20 02:56:31;;;;;;;3.88;2.50;;;8.90;99.90;;;;;;4858917;29;20057;-71
2022/12/20 02:59:08;;;;;;;4.85;3.00;;;8.90;99.90;;;;;;4856089;29;20050;-71
2022/12/20 03:01:43;;;;;;;3.85;2.47;;;8.90;99.90;;;;;;4858006;29;20057;-71
2022/12/20 03:04:10;;;;;;;4.03;2.63;;;9.00;99.90;;;;;;4858016;29;20037;-71
2022/12/20 03:06:35;;;;;;;5.30;2.88;;;9.00;99.90;;;;;;4857227;29;20087;-71
2022/12/20 03:09:02;;;;;;;3.47;2.67;;;9.00;99.90;;;;;;4856308;29;20076;-71
2022/12/20 03:11:28;;;;;;;3.90;2.47;;;9.00;99.90;;;;;;4857945;29;20060;-71
2022/12/20 03:13:53;;;;;;;5.03;2.95;;;9.00;99.90;;;;;;4855862;29;20367;-69
2022/12/20 03:16:19;;;;;;;4.63;2.45;;;9.10;99.90;;;;;;4837527;29;20052;-70
2022/12/20 03:18:45;;;;;;;4.10;2.55;;;9.00;99.90;;;;;;4836463;29;20410;-71
2022/12/20 03:21:11;;;;;;;5.85;2.72;;;9.00;99.90;;;;;;4848707;29;20053;-71
2022/12/20 03:23:36;;;;;;;4.00;2.95;;;9.10;99.90;;;;;;4825756;29;20077;-71
2022/12/20 03:26:02;;;;;;;3.92;2.75;;;9.00;99.90;;;;;;4856998;29;20091;-70
2022/12/20 03:28:28;;;;;;;4.25;2.67;;;9.10;99.90;;;;;;4857147;29;20052;-71
2022/12/20 03:30:53;;;;;;;3.58;2.53;;;9.10;99.90;;;;;;4836645;29;20431;-71
2022/12/20 03:33:19;;;;;;;4.50;2.55;;;8.90;99.90;;;;;;4849740;29;20057;-71
2022/12/20 03:35:46;;;;;;;5.50;2.85;;;9.00;99.90;;;;;;4856927;29;20076;-71
2022/12/20 03:38:12;;;;;;;3.00;2.50;;;9.10;99.90;;;;;;4857367;29;20466;-71
2022/12/20 03:40:37;;;;;;;3.03;2.47;;;9.10;99.90;;;;;;4854884;29;20119;-71
2022/12/20 03:43:03;;;;;;;4.05;2.58;;;9.00;99.90;;;;;;4837683;29;20049;-71
2022/12/20 03:45:29;;;;;;;3.65;2.38;;;9.00;99.90;;;;;;4850163;29;20081;-71
2022/12/20 03:47:55;;;;;;;3.33;2.47;;;9.00;99.90;;;;;;4841427;29;20041;-71
2022/12/20 03:50:21;;;;;;;6.22;2.58;;;9.00;99.90;;;;;;4842252;29;20088;-71
2022/12/20 03:52:46;;;;;;;8.18;2.85;;;8.90;99.90;;;;;;4826080;29;20049;-71
2022/12/20 03:55:12;;;;;;;4.03;2.40;;;9.00;99.90;;;;;;4856579;29;20461;-70
2022/12/20 03:57:38;;;;;;;3.15;2.33;;;9.00;99.90;;;;;;4855955;29;20379;-70
2022/12/20 04:00:05;;;;;;;3.60;2.53;;;9.00;99.90;;;;;;4841276;29;20054;-71
2022/12/20 04:02:31;;;;;;;2.60;2.40;;;9.00;99.90;;;;;;4856881;29;20446;-70
2022/12/20 04:04:56;;;;;;;3.28;2.67;;;8.90;99.90;;;;;;4856977;29;20045;-70
2022/12/20 04:07:22;;;;;;;3.92;2.50;;;9.00;99.90;;;;;;4857219;29;20189;-70
2022/12/20 04:09:48;;;;;;;3.70;2.50;;;8.90;99.90;;;;;;4856619;29;20493;-70
2022/12/20 04:12:13;;;;;;;5.28;2.63;;;9.10;99.90;;;;;;4860135;29;20124;-73
2022/12/20 04:14:39;;;;;;;4.80;2.65;;;9.00;99.90;;;;;;4844322;29;20075;-73
2022/12/20 04:17:05;;;;;;;5.32;2.70;;;9.10;99.90;;;;;;4860069;29;20042;-73
2022/12/20 04:19:30;;;;;;;5.30;2.58;;;9.10;99.90;;;;;;4845955;29;20050;-74
2022/12/20 04:21:57;;;;;;;3.45;2.35;;;9.10;99.90;;;;;;4855685;29;20071;-73
2022/12/20 04:24:23;;;;;;;3.22;2.22;;;9.20;99.90;;;;;;4842274;29;20050;-73
2022/12/20 04:26:49;;;;;;;4.00;2.60;;;9.20;99.90;;;;;;4833756;29;20490;-74
2022/12/20 04:29:15;;;;;;;3.42;2.33;;;9.10;99.90;;;;;;4855685;29;20092;-74
2022/12/20 04:31:41;;;;;;;4.13;2.38;;;9.10;99.90;;;;;;4863064;29;20046;-74
2022/12/20 04:34:07;;;;;;;2.75;2.10;;;9.40;99.90;;;;;;4862734;29;20053;-74
2022/12/20 04:36:33;;;;;;;3.20;2.58;;;9.20;99.90;;;;;;4861989;29;20046;-74
2022/12/20 04:38:58;;;;;;;5.28;2.90;;;9.30;99.90;;;;;;4847100;29;20389;-74
2022/12/20 04:41:25;;;;;;;5.03;3.10;;;9.30;99.90;;;;;;4862915;29;20053;-74
2022/12/20 04:43:53;;;;;;;3.60;3.08;;;9.40;99.90;;;;;;4862354;29;20477;-73
2022/12/20 04:46:19;;;;;;;3.03;2.40;;;9.20;99.90;;;;;;4830532;29;20398;-74
2022/12/20 04:48:45;;;;;;;3.80;2.75;;;9.40;99.90;;;;;;4862220;29;20045;-74
2022/12/20 04:51:11;;;;;;;7.32;2.90;;;9.40;99.90;;;;;;4845955;29;20516;-71
2022/12/20 04:53:46;;;;;;;3.60;2.70;;;9.30;99.90;;;;;;4858467;29;20045;-71
2022/12/20 04:56:14;;;;;;;3.08;2.58;;;9.30;99.90;;;;;;4860192;29;20057;-71
2022/12/20 04:58:39;;;;;;;5.07;3.00;;;9.30;99.90;;;;;;4860556;29;20056;-70
2022/12/20 05:01:05;;;;;;;3.80;2.88;;;9.40;99.90;;;;;;4859567;29;20037;-70
2022/12/20 05:03:31;;;;;;;4.57;2.80;;;9.30;99.90;;;;;;4859593;29;20049;-70
2022/12/20 05:05:56;;;;;;;3.67;2.65;;;9.40;99.90;;;;;;4844229;29;20557;-70
2022/12/20 05:08:23;;;;;;;3.63;2.85;;;9.40;99.90;;;;;;4839733;29;20060;-70
2022/12/20 05:10:48;;;;;;;3.95;3.42;;;9.50;99.90;;;;;;4861265;29;20056;-72
2022/12/20 05:13:14;;;;;;;5.60;3.05;;;9.70;99.90;;;;;;4862611;29;20049;-74
2022/12/20 05:15:41;;;;;;;4.13;3.10;;;9.60;99.90;;;;;;4850703;29;20186;-73
2022/12/20 05:18:06;;;;;;;;;;;9.80;99.90;;;;;;4853680;29;20049;-73
2022/12/20 05:20:32;;;;;;;4.68;2.95;;;9.80;99.90;;;;;;4862483;29;19930;-73
2022/12/20 05:28:32;;;;;;;4.85;2.70;;;9.60;99.90;;;;;;4862181;29;20069;-73
2022/12/20 05:30:58;;;;;;;3.95;2.90;;;9.70;99.90;;;;;;4863446;29;20044;-74
2022/12/20 05:33:24;;;;;;;3.42;3.00;;;9.70;99.90;;;;;;4846614;29;20045;-74
2022/12/20 05:35:50;;;;;;;3.30;2.75;;;9.70;99.90;;;;;;4861772;29;20379;-74
2022/12/20 05:38:16;;;;;;;4.10;3.08;;;9.80;99.90;;;;;;4846420;29;20060;-74
2022/12/20 05:40:41;;;;;;;4.65;3.10;;;9.80;99.90;;;;;;4861991;29;20077;-74
2022/12/20 05:43:07;;;;;;;4.45;2.90;;;9.70;99.90;;;;;;4846876;29;20045;-74
2022/12/20 05:45:34;;;;;;;5.57;3.03;;;9.70;99.90;;;;;;4862535;29;20041;-74
2022/12/20 05:47:59;;;;;;;3.55;2.60;;;9.80;99.90;;;;;;4863890;29;20053;-74
2022/12/20 05:50:25;;;;;;;5.82;2.70;;;9.80;99.90;;;;;;4861481;29;20106;-74
2022/12/20 05:52:51;;;;;;;3.95;3.03;;;9.80;99.90;;;;;;4862776;29;20041;-74
2022/12/20 05:55:17;;;;;;;5.45;3.00;;;9.80;99.90;;;;;;4843020;29;20042;-74
2022/12/20 05:57:42;;;;;;;5.13;3.38;;;9.90;99.90;;;;;;4848212;29;20512;-74
2022/12/20 06:00:09;;;;;;;4.20;2.85;;;9.90;99.90;;;;;;4861119;29;20052;-74
2022/12/20 06:02:35;;;;;;;4.15;2.58;;;9.90;99.90;;;;;;4861120;29;20120;-74
2022/12/20 06:05:01;;;;;;;3.30;2.53;;;9.90;99.90;;;;;;4829471;29;20077;-74
2022/12/20 06:07:27;;;;;;;4.65;2.60;;;10.00;99.90;;;;;;4860827;29;20057;-74
2022/12/20 06:09:55;;;;;;;4.20;2.63;;;10.00;99.90;;;;;;4861328;29;20439;-75
2022/12/20 06:12:20;;;;;;;4.40;2.70;;;9.80;99.90;;;;;;4860963;29;20068;-74
2022/12/20 06:14:46;;;;;;;5.55;2.70;;;9.90;99.90;;;;;;4861518;29;20462;-74
2022/12/20 06:17:12;;;;;;;3.95;2.63;;;9.90;99.90;;;;;;4862095;29;20045;-74
2022/12/20 06:19:40;;;;;;;3.97;2.60;;;9.90;99.90;;;;;;4845526;29;20041;-72
2022/12/20 06:22:07;;;;;;;3.22;2.60;;;9.90;99.90;;;;;;4845820;29;20049;-74
2022/12/20 06:24:34;;;;;;;4.55;2.58;;;10.00;99.90;;;;;;4860803;29;20053;-74
2022/12/20 06:26:59;;;;;;;5.22;2.75;;;10.00;99.90;;;;;;4845988;29;20077;-75
2022/12/20 06:29:25;;;;;;;3.63;2.67;;;9.90;99.90;;;;;;4860262;29;20060;-74
2022/12/20 06:31:51;;;;;;;3.28;2.60;;;9.90;99.90;;;;;;4845903;29;20073;-74
2022/12/20 06:34:17;;;;;;;3.95;2.72;;;9.90;99.90;;;;;;4859505;29;20486;-75
2022/12/20 06:36:43;;;;;;;3.92;2.65;;;10.00;99.90;;;;;;4845637;29;20064;-71
2022/12/20 06:39:09;;;;;;;4.28;2.67;;;10.00;99.90;;;;;;4833004;29;20057;-71
2022/12/20 06:41:35;;;;;;;3.83;2.60;;;10.00;99.90;;;;;;4858362;29;20053;-70
2022/12/20 06:44:01;;;;;;;3.47;2.45;;;10.00;99.90;;;;;;4845155;29;20400;-70
2022/12/20 06:46:27;;;;;;;4.68;2.97;;;10.00;99.90;;;;;;4824560;29;20094;-71
2022/12/20 06:48:55;;;;;;;3.92;2.90;;;10.10;99.90;;;;;;4851049;29;20049;-70
2022/12/20 06:51:21;;;;;;;4.53;2.53;;;10.10;99.90;;;;;;4857261;29;20077;-70
2022/12/20 06:53:46;;;;;;;2.72;2.40;;;10.00;99.90;;;;;;4857736;29;20449;-70
2022/12/20 06:56:12;;;;;;;3.65;2.50;;;10.10;99.90;;;;;;4838842;29;20364;-70
2022/12/20 06:58:38;;;;;;;4.68;2.85;;;10.10;99.90;;;;;;4856447;29;20445;-70
2022/12/20 07:01:04;;;;;;;3.75;2.35;;;10.10;99.90;;;;;;4857566;29;20394;-71
2022/12/20 07:03:29;;;;;;;5.78;3.20;;;10.20;99.90;;;;;;4835953;29;20046;-71
2022/12/20 07:05:55;;;;;;;3.60;2.58;;;10.10;99.90;;;;;;4858447;29;20497;-69
2022/12/20 07:08:22;;;;;;;3.75;2.50;;;10.20;99.90;;;;;;4857636;29;20049;-69
2022/12/20 07:10:48;;;;;;;3.97;2.70;;;10.10;99.90;;;;;;4840249;29;20106;-70
2022/12/20 07:13:13;;;;;;;4.35;2.50;;;10.00;99.90;;;;;;4857832;29;20057;-70
2022/12/20 07:15:39;;;;;;;3.58;2.72;;;10.00;99.90;;;;;;4851095;29;20049;-71
2022/12/20 07:18:05;;;;;;;3.17;2.80;;;10.00;99.90;;;;;;4839504;29;20534;-70
2022/12/20 07:20:31;;;;;;;;;;;9.90;99.90;;;;;;4839788;29;20054;-70
2022/12/20 07:22:57;;;;;;;4.20;2.70;;;9.90;99.90;;;;;;4856850;29;20368;-70
2022/12/20 07:25:24;;;;;;;2.95;2.50;;;10.00;99.90;;;;;;4857914;29;20149;-70
2022/12/20 07:27:50;;;;;;;3.83;2.85;;;10.00;99.90;;;;;;4855799;29;20569;-70
2022/12/20 07:30:17;;;;;;;3.75;3.22;;;9.80;99.90;;;;;;4853919;29;20038;-71
2022/12/20 07:32:43;;;;;;;4.20;3.10;;;9.80;99.90;;;;;;4839391;29;20048;-70
2022/12/20 07:35:10;;;;;;;4.97;3.40;;;9.90;99.90;;;;;;4852715;29;20053;-70
2022/12/20 07:37:37;;;;;;;4.30;3.22;;;9.90;99.90;;;;;;4856574;29;20124;-71
2022/12/20 07:40:02;;;;;;;;;;;9.80;99.90;;;;;;4838644;29;20077;-70
2022/12/20 07:42:28;;;;;;;3.50;3.08;;;10.00;99.90;;;;;;4848813;29;20476;-71
2022/12/20 07:44:54;;;;;;;4.18;3.50;;;9.80;99.90;;;;;;4861952;29;20558;-71
2022/12/20 07:47:20;;;;;;;4.68;3.55;;;10.00;99.90;;;;;;4855480;29;20532;-70
2022/12/20 07:49:45;;;;;;;4.63;3.65;;;10.00;99.90;;;;;;4841865;29;20092;-71
2022/12/20 07:52:13;;;;;;;4.10;3.25;;;9.90;99.90;;;;;;4857743;29;20418;-71
2022/12/20 07:54:52;;;;;;;5.53;3.47;;;10.00;99.90;;;;;;4856845;29;20405;-71
2022/12/20 07:57:27;;;;;;;4.00;3.03;;;10.10;99.90;;;;;;4865893;29;20050;-71
2022/12/20 07:59:57;;;;;;;4.53;3.30;;;10.00;99.90;;;;;;4853238;29;20156;-71
2022/12/20 08:02:28;;;;;;;4.63;3.33;;;10.10;99.90;;;;;;4860400;29;20818;-70
2022/12/20 08:04:54;;;;;;;3.70;3.30;;;10.00;99.90;;;;;;4859135;29;20128;-69
2022/12/20 08:07:20;;;;;;;4.57;3.40;;;10.10;99.90;;;;;;4844839;29;20050;-70
2022/12/20 08:09:47;;;;;;;4.32;3.42;;;10.00;99.90;;;;;;4856000;29;20073;-70
2022/12/20 08:12:16;;;;;;;4.82;3.60;;;10.00;99.90;;;;;;4856941;29;20049;-70
2022/12/20 08:14:42;;;;;;;5.05;3.58;;;10.20;99.90;;;;;;4859152;29;20545;-69
2022/12/20 08:17:08;;;;;;;6.68;3.75;;;10.20;99.90;;;;;;4860564;29;20436;-69
2022/12/20 08:19:34;;;;;;;3.83;3.42;;;10.10;99.90;;;;;;4862080;29;20045;-70
2022/12/20 08:22:00;;;;;;;4.07;3.63;;;10.10;99.90;;;;;;4860303;29;20411;-69
2022/12/20 08:24:25;;;;;;;6.18;3.78;;;10.10;99.90;;;;;;4841351;29;20218;-70
2022/12/20 08:26:51;;;;;;;3.72;3.13;;;10.10;99.90;;;;;;4858451;29;20462;-70
2022/12/20 08:29:17;;;;;;;5.15;3.60;;;10.30;99.90;;;;;;4856308;29;20056;-70
2022/12/20 08:31:42;;;;;;;3.53;3.22;;;10.10;99.90;;;;;;4858550;29;20132;-69
2022/12/20 08:34:09;;;;;;;3.95;3.10;;;10.20;99.90;;;;;;4860627;29;20054;-70
2022/12/20 08:36:35;;;;;;;3.80;2.92;;;10.20;99.90;;;;;;4860711;29;20411;-70
2022/12/20 08:39:04;;;;;;;3.97;2.97;;;10.10;99.90;;;;;;4839395;29;20055;-69
2022/12/20 08:41:32;;;;;;;3.33;2.75;;;10.20;99.90;;;;;;4859857;29;20049;-70
2022/12/20 08:43:58;;;;;;;3.80;2.60;;;10.30;99.90;;;;;;4859919;29;20056;-70
2022/12/20 08:46:24;;;;;;;3.10;2.80;;;10.20;99.90;;;;;;4857641;29;20057;-69
2022/12/20 08:48:49;;;;;;;5.50;3.17;;;10.10;99.90;;;;;;4858752;29;20045;-70
2022/12/20 08:51:15;;;;;;;3.35;2.80;;;10.20;99.90;;;;;;4838663;29;20133;-70
2022/12/20 08:53:41;;;;;;;3.55;2.60;;;10.10;99.90;;;;;;4827093;29;20053;-70
2022/12/20 08:56:12;;;;;;;3.90;2.95;;;10.30;99.90;;;;;;4857962;29;21095;-69
2022/12/20 08:58:38;;;;;;;4.03;3.28;;;10.30;99.90;;;;;;4855913;29;20569;-71
2022/12/20 09:01:10;;;;;;;3.80;2.67;;;10.30;99.90;;;;;;4850378;29;20120;-71
2022/12/20 09:03:36;;;;;;;4.55;2.55;;;10.20;99.90;;;;;;4834994;29;20045;-72
2022/12/20 09:06:07;;;;;;;4.35;2.90;;;10.20;99.90;;;;;;4846969;29;20041;-71
2022/12/20 09:08:35;;;;;;;4.18;2.50;;;10.20;99.90;;;;;;4840693;29;20133;-70
2022/12/20 09:11:08;;;;;;;4.25;2.50;;;10.30;99.90;;;;;;4856186;29;20041;-68
2022/12/20 09:13:34;;;;;;;4.70;2.65;;;10.30;99.90;;;;;;4852163;29;20120;-68
2022/12/20 09:16:01;;;;;;;4.45;2.60;;;10.40;99.90;;;;;;4856598;29;20128;-69
2022/12/20 09:18:27;;;;;;;2.85;2.33;;;10.40;99.90;;;;;;4851524;29;20060;-69
2022/12/20 09:20:53;;;;;;;3.70;2.80;;;10.50;99.90;;;;;;4857220;29;20049;-70
2022/12/20 09:23:19;;;;;;;3.17;2.53;;;10.50;99.90;;;;;;4826334;29;20110;-70
2022/12/20 09:25:44;;;;;;;3.05;2.40;;;10.50;99.90;;;;;;4859261;29;20102;-70
2022/12/20 09:28:10;;;;;;;3.78;2.25;;;10.50;99.90;;;;;;4844384;29;20053;-69
2022/12/20 09:30:36;;;;;;;3.53;2.47;;;10.50;99.90;;;;;;4843040;29;20140;-69
2022/12/20 09:33:01;;;;;;;3.03;2.15;;;10.50;99.90;;;;;;4857939;29;20053;-69
2022/12/20 09:35:27;;;;;;;3.55;2.40;;;10.60;99.90;;;;;;4836959;29;20053;-69
2022/12/20 09:37:53;;;;;;;3.38;2.08;;;10.60;99.90;;;;;;4838007;29;20371;-70
2022/12/20 09:40:21;;;;;;;4.68;2.40;;;10.60;99.90;;;;;;4841834;29;20049;-70
2022/12/20 09:42:48;;;;;;;4.20;2.45;;;10.60;99.90;;;;;;4853633;29;20798;-70
2022/12/20 09:45:28;;;;;;;5.40;2.38;;;10.70;99.90;;;;;;4833436;29;20132;-70
2022/12/20 09:47:54;;;;;;;4.45;2.30;;;10.80;99.90;;;;;;4857978;29;20105;-70
2022/12/20 09:50:33;;;;;;;3.28;2.20;;;10.80;99.90;;;;;;4854026;29;20046;-70
2022/12/20 09:53:05;;;;;;;2.35;1.83;;;10.80;99.90;;;;;;4858072;29;20054;-70
2022/12/20 09:55:39;;;;;;;3.90;2.25;;;10.90;99.90;;;;;;4855648;29;20049;-70
2022/12/20 09:58:17;;;;;;;5.63;2.30;;;10.90;99.90;;;;;;4855165;29;20048;-70
2022/12/20 10:00:47;;;;;;;3.17;2.20;;;11.00;99.90;;;;;;4845416;29;20193;-70
2022/12/20 10:03:20;;;;;;;5.05;2.42;;;11.00;99.90;;;;;;4852393;29;20038;-70
2022/12/20 10:05:55;;;;;;;4.00;2.03;;;11.00;99.90;;;;;;4835216;29;20407;-70
2022/12/20 10:08:53;;;;;;;3.20;2.25;;;11.00;99.90;;;;;;4850798;29;20129;-70
2022/12/20 10:11:21;;;;;;;;;;;11.00;99.90;;;;;;4838255;29;20656;-70
2022/12/20 10:14:01;;;;;;;4.43;2.13;;;11.00;99.90;;;;;;4851552;29;20388;-69
2022/12/20 10:16:45;;;;;;;3.75;2.10;;;11.00;99.90;;;;;;4846991;29;20037;-70
2022/12/20 10:19:49;;;;;;;5.75;2.55;;;10.90;99.90;;;;;;4846594;29;20053;-70
2022/12/20 10:22:27;;;;;;;3.28;1.95;;;10.90;99.90;;;;;;4852778;29;20080;-69
2022/12/20 10:25:18;;;;;;;2.90;2.05;;;10.90;99.90;;;;;;4839413;29;20063;-70
2022/12/20 10:27:45;;;;;;;4.72;2.13;;;10.90;99.90;;;;;;4846365;29;20172;-70
2022/12/20 10:30:14;;;;;;;3.90;2.40;;;10.90;99.90;;;;;;4853917;29;20037;-70
2022/12/20 10:32:44;;;;;;;3.38;2.00;;;10.90;99.90;;;;;;4855895;29;20069;-70
2022/12/20 10:35:09;;;;;;;3.05;2.10;;;10.90;99.90;;;;;;4855838;29;20065;-70
2022/12/20 10:37:35;;;;;;;3.25;2.15;;;10.90;99.90;;;;;;4857605;29;20057;-70
2022/12/20 10:40:01;;;;;;;3.45;2.00;;;10.90;99.90;;;;;;4855981;29;20113;-70
2022/12/20 10:42:38;;;;;;;2.75;1.88;;;11.00;99.90;;;;;;4858785;29;20124;-70
2022/12/20 10:45:25;;;;;;;3.45;2.20;;;10.90;99.90;;;;;;4853142;29;20056;-69
2022/12/20 10:47:56;;;;;;;3.22;1.90;;;10.90;99.90;;;;;;4849108;29;20133;-70
2022/12/20 10:50:24;;;;;;;3.85;2.10;;;10.90;99.90;;;;;;4825195;29;20050;-70
2022/12/20 10:53:08;;;;;;;4.43;2.08;;;11.00;99.90;;;;;;4848278;29;20117;-70
2022/12/20 10:55:38;;;;;;;2.92;1.85;;;11.00;99.90;;;;;;4857081;29;20053;-70
2022/12/20 10:58:24;;;;;;;3.72;2.03;;;11.00;99.90;;;;;;4849019;29;20061;-70
2022/12/20 11:00:50;;;;;;;2.50;2.03;;;11.10;99.90;;;;;;4852386;29;20512;-72
2022/12/20 11:03:21;;;;;;;5.35;2.42;;;11.10;99.90;;;;;;4848324;29;20041;-70
2022/12/20 11:05:59;;;;;;;2.83;1.90;;;11.10;99.90;;;;;;4866582;29;20110;-70
2022/12/20 11:08:26;;;;;;;3.08;2.05;;;11.00;99.90;;;;;;4837993;29;20056;-70
2022/12/20 11:11:18;;;;;;;6.13;2.80;;;11.00;99.90;;;;;;4854036;29;20148;-70
2022/12/20 11:13:45;;;;;;;3.85;2.20;;;10.90;99.90;;;;;;4852611;29;20117;-70
2022/12/20 11:16:35;;;;;;;4.25;2.00;;;10.90;99.90;;;;;;4855600;29;20108;-69
2022/12/20 11:19:37;;;;;;;3.72;2.08;;;10.80;99.90;;;;;;4855647;29;20081;-70
2022/12/20 11:22:32;;;;;;;3.05;2.00;;;10.70;99.90;;;;;;4826919;29;20149;-70
2022/12/20 11:25:22;;;;;;;5.18;2.13;;;10.70;99.90;;;;;;4841232;29;20053;-70
2022/12/20 11:27:54;;;;;;;4.63;2.08;;;10.70;99.90;;;;;;4856923;29;20045;-70
2022/12/20 11:30:26;;;;;;;3.83;2.10;;;10.70;99.90;;;;;;4852473;29;20501;-70
2022/12/20 11:33:05;;;;;;;3.72;2.22;;;10.70;99.90;;;;;;4853666;29;20069;-70
2022/12/20 11:35:58;;;;;;;4.47;2.08;;;10.80;99.90;;;;;;4847528;29;20037;-70
2022/12/20 11:38:37;;;;;;;2.65;2.15;;;10.80;99.90;;;;;;4841218;29;20521;-69
2022/12/20 11:41:38;;;;;;;3.42;1.80;;;10.80;99.90;;;;;;4855754;29;20037;-71
2022/12/20 11:44:29;;;;;;;4.38;2.30;;;10.80;99.90;;;;;;4827133;29;20472;-70
2022/12/20 11:47:06;;;;;;;4.55;2.10;;;10.80;99.90;;;;;;4850098;29;20045;-70
2022/12/20 11:49:32;;;;;;;4.65;2.22;;;10.80;99.90;;;;;;4839028;29;20128;-71
2022/12/20 11:52:08;;;;;;;3.30;2.22;;;10.80;99.90;;;;;;4853393;29;20137;-69
2022/12/20 11:54:42;;;;;;;3.55;2.67;;;10.80;99.90;;;;;;4850960;29;20049;-69
2022/12/20 11:57:29;;;;;;;4.07;2.35;;;10.90;99.90;;;;;;4849869;29;20046;-69
2022/12/20 12:00:01;;;;;;;4.18;2.13;;;10.80;99.90;;;;;;4848085;29;20053;-69
2022/12/20 12:03:06;;;;;;;4.85;2.50;;;10.80;99.90;;;;;;4848762;29;20057;-70
2022/12/20 12:05:59;;;;;;;3.15;2.10;;;10.70;99.90;;;;;;4828655;29;20064;-69
2022/12/20 12:08:39;;;;;;;4.03;2.53;;;10.60;99.90;;;;;;4840329;29;20109;-70
2022/12/20 12:11:17;;;;;;;3.55;2.17;;;10.60;99.90;;;;;;4854819;29;20117;-70
2022/12/20 12:13:44;;;;;;;3.15;2.20;;;10.70;99.90;;;;;;4856114;29;20092;-69
2022/12/20 12:16:22;;;;;;;6.35;2.13;;;10.70;99.90;;;;;;4854200;29;20045;-69
2022/12/20 12:18:48;;;;;;;3.85;2.38;;;10.70;99.90;;;;;;4845049;29;20053;-69
2022/12/20 12:21:22;;;;;;;5.35;2.35;;;10.70;99.90;;;;;;4835119;29;20081;-69
2022/12/20 12:24:12;;;;;;;3.70;1.80;;;10.60;99.90;;;;;;4856141;29;20141;-69
2022/12/20 12:26:39;;;;;;;5.97;2.33;;;10.60;99.90;;;;;;4848734;29;20049;-69
2022/12/20 12:29:10;;;;;;;3.13;2.40;;;10.60;99.90;;;;;;4839310;29;20046;-69
2022/12/20 12:31:54;;;;;;;3.17;2.08;;;10.60;99.90;;;;;;4858062;29;20074;-69
2022/12/20 12:34:32;;;;;;;4.05;2.25;;;10.50;99.90;;;;;;4846386;29;20058;-69
2022/12/20 12:37:19;;;;;;;3.20;2.30;;;10.50;99.90;;;;;;4848188;29;20049;-69
2022/12/20 12:40:21;;;;;;;2.83;2.00;;;10.40;99.90;;;;;;4844185;29;20390;-70
2022/12/20 12:43:18;;;;;;;2.75;2.33;;;10.40;99.90;;;;;;4854471;29;20045;-69
2022/12/20 12:45:50;;;;;;;3.55;2.30;;;10.40;99.90;;;;;;4800080;29;20185;-70
2022/12/20 12:48:29;;;;;;;4.35;2.20;;;10.50;99.90;;;;;;4846115;29;20049;-77
2022/12/20 12:50:57;;;;;;;3.45;1.90;;;10.40;99.90;;;;;;4845376;29;20034;-70
2022/12/20 12:53:37;;;;;;;3.65;2.70;;;10.40;99.90;;;;;;4854566;29;21110;-70
2022/12/20 12:56:26;;;;;;;3.75;2.28;;;10.50;99.90;;;;;;4855098;29;20126;-70
2022/12/20 12:59:10;;;;;;;2.47;2.25;;;10.50;99.90;;;;;;4846172;29;20057;-70
2022/12/20 13:01:47;;;;;;;2.78;2.22;;;10.50;99.90;;;;;;4849463;29;20049;-70
2022/12/20 13:04:18;;;;;;;3.30;2.35;;;10.30;99.90;;;;;;4847189;29;20061;-71
2022/12/20 13:06:48;;;;;;;3.30;2.40;;;10.60;99.90;;;;;;4833883;29;20049;-71
2022/12/20 13:09:26;;;;;;;3.53;2.50;;;10.20;99.90;;;;;;4849278;29;20125;-71
2022/12/20 13:11:54;;;;;;;3.13;2.40;;;10.60;99.90;;;;;;4865979;29;20865;-71
2022/12/20 13:14:21;;;;;;;3.90;2.47;;;10.20;99.90;;;;;;4847973;29;20045;-72
2022/12/20 13:16:48;;;;;;;3.00;2.50;;;10.60;99.90;;;;;;4852333;29;20145;-72